METAR Espana - 12 Dec 2017 - 2348 UTC - RocketRoute WX - rrwx.com
LEAL 122330Z 30010KT CAVOK 08/M01 Q1023 NOSIG LEAM 122330Z AUTO 33011KT 9999 NCD 09/01 Q1024 LEAS 122330Z 22013KT 9999 BKN038 11/05 Q1019 NOSIG LEBZ   LEBL 122330Z 33012KT 9999 FEW030 FEW042TCU 05/01 Q1022 NOSIG LEBB 122330Z AUTO 00000KT 9999 NCD 04/03 Q1022 LEGR 122330Z AUTO VRB01KT 9999 NCD M00/M02 Q1025 LEIB 122300Z VRB01KT CAVOK 06/02 Q1022 NOSIG LEJR 122330Z AUTO 02009KT 9999 NCD 06/03 Q1025 LELN   LEMD 122330Z 33003KT CAVOK M00/M02 Q1024 NOSIG LEMG 122330Z 30008KT 270V330 CAVOK 09/M01 Q1024 NOSIG LEMH 122330Z 01008KT 9999 FEW025 07/05 Q1021 LELC   LEPA 122330Z 06004KT 9999 FEW023 06/05 Q1022 NOSIG LERS 122330Z AUTO VRB01KT 9999 NCD 00/M01 Q1022 LEXJ 122330Z AUTO 21010KT 7000 BKN078 09/03 Q1021 LEST 122330Z 21011KT 170V260 4000 -RADZ BR OVC004 08/07 Q1022 NOSIG LEZL 122330Z 03005KT CAVOK 08/04 Q1025 NOSIG LEVC 122330Z 29003KT CAVOK 04/M03 Q1024 NOSIG LEVD   LEVT 122330Z 00000KT 9999 FEW065 M01/M01 Q1022 LEZG 122330Z 22005KT CAVOK 03/M00 Q1023 GCLP 122330Z 01016KT 330V030 9999 FEW040 SCT050 BKN070 18/10 Q1021 NOSIG GCRR 122330Z 02017KT 9999 FEW049 16/10 Q1020 GCXO 122330Z AUTO 35013KT 320V030 9999 SCT013/// BKN022/// BKN029/// 12/10 Q1024 GCTS 122330Z 03019G29KT 9999 SCT050 18/09 Q1021 WS R07 NOSIG

RocketRoute WX - rrwx.com weather for pilots